createdAt,value
2022-11-14T00:00:44.047Z,7.82
2022-11-14T00:03:04.821Z,8.45
2022-11-14T00:05:24.936Z,8.45
2022-11-14T00:07:44.139Z,8.13
2022-11-14T00:10:03.868Z,8.18
2022-11-14T00:12:23.135Z,8.38
2022-11-14T00:14:42.756Z,9.05
2022-11-14T00:17:03.760Z,7.68
2022-11-14T00:19:23.578Z,7.72
2022-11-14T00:21:43.006Z,8.27
2022-11-14T00:24:02.586Z,8.25
2022-11-14T00:26:21.795Z,7.50
2022-11-14T00:28:41.518Z,7.45
2022-11-14T00:31:00.637Z,8.07
2022-11-14T00:33:23.836Z,7.40
2022-11-14T00:35:43.050Z,7.53
2022-11-14T00:38:02.583Z,7.95
2022-11-14T00:40:21.896Z,7.95
2022-11-14T00:42:41.561Z,7.43
2022-11-14T00:45:00.726Z,6.43
2022-11-14T00:47:20.255Z,6.88
2022-11-14T00:49:41.253Z,6.30
2022-11-14T00:52:00.728Z,5.63
2022-11-14T00:54:19.933Z,5.43
2022-11-14T00:56:39.403Z,4.93
2022-11-14T00:59:01.133Z,4.70
2022-11-14T01:01:20.796Z,5.25
2022-11-14T01:03:40.330Z,5.35
2022-11-14T01:06:01.438Z,7.50
2022-11-14T01:08:21.820Z,7.28
2022-11-14T01:10:44.157Z,6.18
2022-11-14T01:15:22.278Z,6.43
2022-11-14T01:17:41.500Z,6.35
2022-11-14T01:20:01.225Z,6.35
2022-11-14T01:22:22.178Z,6.18
2022-11-14T01:24:41.691Z,6.10
2022-11-14T01:27:00.867Z,5.03
2022-11-14T01:29:20.231Z,5.43
2022-11-14T01:31:39.388Z,5.18
2022-11-14T01:33:59.008Z,6.13
2022-11-14T01:36:18.274Z,6.00
2022-11-14T01:38:39.636Z,5.65
2022-11-14T01:40:58.851Z,5.10
2022-11-14T01:43:32.455Z,5.20
2022-11-14T01:45:57.056Z,4.90
2022-11-14T01:48:22.861Z,4.30
2022-11-14T01:50:42.227Z,4.20
2022-11-14T01:53:01.543Z,4.40
2022-11-14T01:55:23.017Z,4.30
2022-11-14T01:57:45.201Z,4.55
2022-11-14T02:00:09.065Z,4.60
2022-11-14T02:02:29.169Z,4.22
2022-11-14T02:04:52.117Z,3.97
2022-11-14T02:07:13.154Z,4.13
2022-11-14T02:09:35.244Z,4.28
2022-11-14T02:11:59.213Z,4.50
2022-11-14T02:14:18.748Z,4.20
2022-11-14T02:16:38.420Z,4.30
2022-11-14T02:18:58.886Z,4.20
2022-11-14T02:21:19.867Z,4.25
2022-11-14T02:23:39.385Z,4.00
2022-11-14T02:25:58.757Z,3.83
2022-11-14T02:28:18.429Z,4.43
2022-11-14T02:30:37.838Z,3.72
2022-11-14T02:33:10.468Z,5.18
2022-11-14T02:35:30.653Z,3.67
2022-11-14T02:37:52.068Z,4.45
2022-11-14T02:40:12.613Z,4.03
2022-11-14T02:42:32.084Z,4.18
2022-11-14T02:44:51.199Z,4.35
2022-11-14T02:47:11.035Z,4.40
2022-11-14T02:49:30.339Z,4.35
2022-11-14T02:51:53.241Z,4.88
2022-11-14T02:54:14.358Z,4.70
2022-11-14T02:56:33.970Z,4.55
2022-11-14T02:58:53.083Z,4.47
2022-11-14T03:01:20.928Z,4.95
2022-11-14T03:03:40.929Z,4.38
2022-11-14T03:06:03.420Z,4.57
2022-11-14T03:08:22.738Z,4.15
2022-11-14T03:10:44.928Z,5.25
2022-11-14T03:13:04.450Z,4.95
2022-11-14T03:15:24.218Z,4.95
2022-11-14T03:17:43.740Z,4.93
2022-11-14T03:20:03.677Z,4.30
2022-11-14T03:22:22.932Z,4.13
2022-11-14T03:24:42.556Z,4.65
2022-11-14T03:27:03.409Z,4.22
2022-11-14T03:29:23.083Z,4.67
2022-11-14T03:31:42.510Z,4.20
2022-11-14T03:34:02.136Z,3.72
2022-11-14T03:36:21.403Z,3.40
2022-11-14T03:38:41.115Z,3.33
2022-11-14T03:41:02.430Z,3.50
2022-11-14T03:43:24.511Z,3.72
2022-11-14T03:45:43.727Z,3.05
2022-11-14T03:48:03.463Z,2.92
2022-11-14T03:50:22.921Z,3.20
2022-11-14T03:52:42.596Z,2.22
2022-11-14T03:55:01.873Z,2.72
2022-11-14T03:57:21.134Z,2.38
2022-11-14T03:59:42.445Z,2.30
2022-11-14T04:02:01.816Z,2.53
2022-11-14T04:04:21.385Z,2.58
2022-11-14T04:06:40.487Z,2.58
2022-11-14T04:09:00.010Z,2.70
2022-11-14T04:11:19.206Z,2.33
2022-11-14T04:13:39.212Z,2.63
2022-11-14T04:16:03.340Z,2.60
2022-11-14T04:18:22.816Z,2.55
2022-11-14T04:20:42.083Z,2.40
2022-11-14T04:23:01.336Z,2.70
2022-11-14T04:25:21.370Z,3.03
2022-11-14T04:27:40.681Z,2.60
2022-11-14T04:30:00.319Z,2.47
2022-11-14T04:32:21.158Z,2.88
2022-11-14T04:34:40.837Z,3.33
2022-11-14T04:37:00.159Z,3.00
2022-11-14T04:39:19.833Z,2.65
2022-11-14T04:41:39.096Z,2.50
2022-11-14T04:43:58.607Z,7.80
2022-11-14T04:46:18.030Z,9.55
2022-11-14T04:48:39.543Z,7.55
2022-11-14T04:50:58.860Z,5.90
2022-11-14T04:53:18.484Z,3.83
2022-11-14T04:55:37.752Z,4.43
2022-11-14T04:58:01.365Z,3.15
2022-11-14T05:00:21.314Z,2.40
2022-11-14T05:02:40.778Z,2.95
2022-11-14T05:05:01.834Z,2.63
2022-11-14T05:07:21.551Z,3.25
2022-11-14T05:09:40.972Z,2.95
2022-11-14T05:12:00.546Z,3.25
2022-11-14T05:14:19.907Z,3.10
2022-11-14T05:16:39.633Z,2.85
2022-11-14T05:18:58.911Z,2.97
2022-11-14T05:21:20.311Z,3.00
2022-11-14T05:23:39.628Z,2.40
2022-11-14T05:26:06.524Z,2.95
2022-11-14T05:28:25.796Z,2.50
2022-11-14T05:30:45.307Z,2.50
2022-11-14T05:33:04.633Z,2.28
2022-11-14T05:35:24.157Z,2.30
2022-11-14T05:37:45.051Z,2.42
2022-11-14T05:40:04.623Z,2.20
2022-11-14T05:42:23.839Z,2.33
2022-11-14T05:44:43.306Z,2.30
2022-11-14T05:47:07.842Z,2.40
2022-11-14T05:49:27.939Z,2.30
2022-11-14T05:51:47.200Z,2.22
2022-11-14T05:54:08.814Z,2.30
2022-11-14T05:56:27.978Z,1.92
2022-11-14T05:58:47.454Z,2.42
2022-11-14T06:01:07.732Z,2.10
2022-11-14T06:03:27.100Z,2.05
2022-11-14T06:05:46.263Z,2.28
2022-11-14T06:08:06.759Z,1.90
2022-11-14T06:10:28.377Z,2.10
2022-11-14T06:12:47.909Z,2.20
2022-11-14T06:15:07.689Z,2.10
2022-11-14T06:17:27.400Z,2.15
2022-11-14T06:19:46.667Z,2.20
2022-11-14T06:22:06.143Z,2.35
2022-11-14T06:24:25.656Z,2.05
2022-11-14T06:26:47.388Z,2.33
2022-11-14T06:29:06.592Z,2.35
2022-11-14T06:31:26.793Z,2.10
2022-11-14T06:33:46.145Z,2.30
2022-11-14T06:36:07.509Z,2.30
2022-11-14T06:38:26.822Z,1.98
2022-11-14T06:40:46.500Z,2.40
2022-11-14T06:43:07.455Z,5.22
2022-11-14T06:45:27.128Z,2.90
2022-11-14T06:47:46.550Z,2.53
2022-11-14T06:50:07.003Z,2.20
2022-11-14T06:52:27.645Z,2.22
2022-11-14T06:54:47.330Z,2.90
2022-11-14T06:57:06.730Z,2.85
2022-11-14T06:59:28.043Z,2.67
2022-11-14T07:01:47.210Z,2.53
2022-11-14T07:04:06.837Z,2.45
2022-11-14T07:06:28.142Z,2.10
2022-11-14T07:08:47.972Z,2.42
2022-11-14T07:11:08.413Z,2.20
2022-11-14T07:13:27.736Z,2.30
2022-11-14T07:15:55.801Z,2.50
2022-11-14T07:18:15.579Z,2.72
2022-11-14T07:20:34.892Z,3.03
2022-11-14T07:22:54.466Z,2.30
2022-11-14T07:25:14.155Z,2.53
2022-11-14T07:27:33.820Z,2.17
2022-11-14T07:29:53.909Z,2.55
2022-11-14T07:32:15.225Z,2.67
2022-11-14T07:34:34.475Z,2.83
2022-11-14T07:36:54.200Z,2.72
2022-11-14T07:39:13.568Z,2.80
2022-11-14T07:41:33.088Z,3.22
2022-11-14T07:43:52.303Z,2.55
2022-11-14T07:46:14.230Z,2.30
2022-11-14T07:48:35.337Z,2.00
2022-11-14T07:50:55.012Z,2.40
2022-11-14T07:53:14.584Z,2.30
2022-11-14T07:55:33.908Z,2.47
2022-11-14T07:57:57.162Z,1.98
2022-11-14T08:00:18.471Z,2.58
2022-11-14T08:02:37.692Z,2.72
2022-11-14T08:04:59.050Z,2.70
2022-11-14T08:07:18.445Z,3.03
2022-11-14T08:09:38.244Z,2.60
2022-11-14T08:11:57.768Z,2.83
2022-11-14T08:14:17.235Z,2.47
2022-11-14T08:16:36.687Z,2.38
2022-11-14T08:18:56.533Z,2.20
2022-11-14T08:21:17.589Z,2.35
2022-11-14T08:23:37.594Z,2.35
2022-11-14T08:25:57.296Z,2.50
2022-11-14T08:28:16.838Z,2.50
2022-11-14T08:30:36.492Z,2.40
2022-11-14T08:32:56.166Z,2.78
2022-11-14T08:35:15.328Z,2.67
2022-11-14T08:37:36.704Z,3.03
2022-11-14T08:39:55.907Z,2.83
2022-11-14T08:42:15.227Z,3.00
2022-11-14T08:44:34.795Z,3.10
2022-11-14T08:46:54.688Z,2.90
2022-11-14T08:49:14.246Z,2.65
2022-11-14T08:51:35.308Z,2.78
2022-11-14T08:53:57.436Z,3.28
2022-11-14T08:56:16.805Z,3.28
2022-11-14T08:58:36.489Z,3.00
2022-11-14T09:00:55.848Z,2.72
2022-11-14T09:03:17.244Z,2.60
2022-11-14T09:05:37.404Z,2.60
2022-11-14T09:07:57.226Z,2.58
2022-11-14T09:10:18.436Z,2.58
2022-11-14T09:12:38.622Z,2.70
2022-11-14T09:14:58.044Z,1.92
2022-11-14T09:17:17.917Z,2.60
2022-11-14T09:19:37.235Z,2.60
2022-11-14T09:21:56.917Z,3.03
2022-11-14T09:24:16.036Z,3.65
2022-11-14T09:26:37.599Z,3.80
2022-11-14T09:28:56.808Z,4.20
2022-11-14T09:31:17.551Z,6.03
2022-11-14T09:33:37.024Z,9.55
2022-11-14T09:36:01.156Z,4.53
2022-11-14T09:38:20.322Z,6.68
2022-11-14T09:40:54.122Z,6.05
2022-11-14T09:43:47.841Z,4.18
2022-11-14T09:46:15.554Z,3.88
2022-11-14T09:48:36.414Z,5.25
2022-11-14T09:51:03.916Z,11.23
2022-11-14T09:53:29.431Z,15.88
2022-11-14T09:55:49.061Z,9.18
2022-11-14T09:58:11.806Z,5.72
2022-11-14T10:00:42.228Z,3.60
2022-11-14T10:03:13.173Z,3.63
2022-11-14T10:05:52.857Z,3.47
2022-11-14T10:08:26.521Z,4.28
2022-11-14T10:10:57.905Z,4.22
2022-11-14T10:13:29.105Z,5.47
2022-11-14T10:15:58.709Z,8.25
2022-11-14T10:18:31.138Z,15.35
2022-11-14T10:20:56.236Z,21.17
2022-11-14T10:23:28.582Z,19.45
2022-11-14T10:25:58.418Z,15.93
2022-11-14T10:28:43.436Z,4.38
2022-11-14T10:31:12.889Z,4.43
2022-11-14T10:33:40.706Z,4.05
2022-11-14T10:36:07.191Z,3.58
2022-11-14T10:38:33.205Z,3.97
2022-11-14T10:40:56.114Z,3.67
2022-11-14T10:43:27.976Z,2.83
2022-11-14T10:45:51.744Z,2.72
2022-11-14T10:48:17.870Z,2.72
2022-11-14T10:50:44.866Z,3.38
2022-11-14T10:53:08.688Z,5.30
2022-11-14T10:55:57.329Z,4.05
2022-11-14T10:58:13.998Z,3.25
2022-11-14T11:00:33.520Z,2.50
2022-11-14T11:02:55.400Z,2.17
2022-11-14T11:05:20.197Z,2.75
2022-11-14T11:08:28.168Z,2.60
2022-11-14T11:11:04.508Z,1.95
2022-11-14T11:13:35.601Z,2.28
2022-11-14T11:16:01.267Z,2.33
2022-11-14T11:18:32.140Z,2.55
2022-11-14T11:21:06.781Z,3.33
2022-11-14T11:23:29.883Z,3.00
2022-11-14T11:25:49.251Z,3.05
2022-11-14T11:28:14.011Z,2.97
2022-11-14T11:30:33.208Z,2.78
2022-11-14T11:32:52.626Z,3.38
2022-11-14T11:35:16.345Z,3.22
2022-11-14T11:37:41.149Z,2.58
2022-11-14T11:40:04.194Z,3.60
2022-11-14T11:42:58.779Z,4.75
2022-11-14T11:45:19.127Z,3.75
2022-11-14T11:47:40.196Z,4.00
2022-11-14T11:50:00.830Z,3.42
2022-11-14T11:52:26.803Z,3.83
2022-11-14T11:55:01.738Z,4.72
2022-11-14T11:57:26.377Z,4.63
2022-11-14T11:59:48.449Z,4.25
2022-11-14T12:04:34.899Z,4.10
2022-11-14T12:07:01.593Z,3.47
2022-11-14T12:09:42.530Z,3.70
2022-11-14T12:12:10.096Z,3.80
2022-11-14T12:14:58.834Z,3.97
2022-11-14T12:18:06.448Z,3.65
2022-11-14T12:20:51.159Z,3.80
2022-11-14T12:23:50.978Z,4.00
2022-11-14T12:26:23.757Z,3.63
2022-11-14T12:29:08.521Z,3.50
2022-11-14T12:31:28.972Z,3.92
2022-11-14T12:33:53.707Z,4.00
2022-11-14T12:36:15.896Z,3.85
2022-11-14T12:43:37.991Z,3.50
2022-11-14T12:46:04.284Z,3.72
2022-11-14T12:48:32.185Z,4.25
2022-11-14T12:50:51.847Z,3.72
2022-11-14T12:53:43.860Z,4.75
2022-11-14T12:56:47.699Z,4.82
2022-11-14T12:59:36.078Z,5.63
2022-11-14T13:02:24.360Z,6.00
2022-11-14T13:04:57.397Z,6.38
2022-11-14T13:07:34.471Z,5.10
2022-11-14T13:10:17.990Z,5.32
2022-11-14T13:12:54.363Z,5.57
2022-11-14T13:15:49.248Z,5.78
2022-11-14T13:18:35.439Z,6.47
2022-11-14T13:21:22.875Z,6.70
2022-11-14T13:24:01.146Z,5.70
2022-11-14T13:26:47.921Z,5.57
2022-11-14T13:29:07.775Z,5.95
2022-11-14T13:31:28.587Z,6.63
2022-11-14T13:33:51.771Z,6.03
2022-11-14T13:36:12.661Z,6.68
2022-11-14T13:39:11.915Z,6.25
2022-11-14T13:41:54.027Z,6.18
2022-11-14T13:44:36.524Z,6.03
2022-11-14T13:47:15.251Z,6.60
2022-11-14T13:49:49.563Z,6.47
2022-11-14T13:52:09.647Z,5.88
2022-11-14T13:54:29.742Z,6.63
2022-11-14T13:57:00.720Z,6.40
2022-11-14T13:59:42.207Z,6.00
2022-11-14T14:02:23.794Z,6.45
2022-11-14T14:04:56.577Z,6.17
2022-11-14T14:07:25.861Z,6.30
2022-11-14T14:09:56.304Z,6.43
2022-11-14T14:12:35.997Z,5.60
2022-11-14T14:15:12.056Z,6.97
2022-11-14T14:17:39.155Z,6.40
2022-11-14T14:20:09.897Z,6.32
2022-11-14T14:22:40.377Z,6.22
2022-11-14T14:25:07.781Z,6.03
2022-11-14T14:27:35.638Z,6.35
2022-11-14T14:30:01.866Z,6.05
2022-11-14T14:32:22.925Z,6.25
2022-11-14T14:34:43.009Z,6.23
2022-11-14T14:37:06.830Z,7.32
2022-11-14T14:39:28.094Z,7.15
2022-11-14T14:41:48.113Z,6.65
2022-11-14T14:44:07.482Z,6.90
2022-11-14T14:46:34.575Z,6.72
2022-11-14T14:48:53.957Z,6.32
2022-11-14T14:51:17.676Z,6.57
2022-11-14T14:53:40.581Z,6.95
2022-11-14T14:56:01.484Z,6.88
2022-11-14T14:58:28.936Z,6.85
2022-11-14T15:00:57.536Z,7.13
2022-11-14T15:03:16.939Z,6.82
2022-11-14T15:05:38.201Z,6.93
2022-11-14T15:08:00.692Z,6.93
2022-11-14T15:10:26.919Z,7.40
2022-11-14T15:12:47.553Z,7.25
2022-11-14T15:15:10.416Z,7.22
2022-11-14T15:17:35.484Z,8.32
2022-11-14T15:19:56.882Z,7.88
2022-11-14T15:22:30.177Z,7.63
2022-11-14T15:25:22.110Z,7.28
2022-11-14T15:27:53.610Z,7.97
2022-11-14T15:30:25.929Z,8.00
2022-11-14T15:32:53.231Z,8.02
2022-11-14T15:35:13.635Z,7.93
2022-11-14T15:37:34.270Z,7.65
2022-11-14T15:39:53.521Z,8.68
2022-11-14T15:42:21.300Z,9.15
2022-11-14T15:44:43.484Z,9.23
2022-11-14T15:47:04.086Z,9.05
2022-11-14T15:49:28.040Z,9.80
2022-11-14T15:51:50.289Z,9.30
2022-11-14T15:56:29.946Z,10.38
2022-11-14T15:58:49.607Z,10.02
2022-11-14T16:01:20.579Z,8.93
2022-11-14T16:03:39.883Z,9.10
2022-11-14T16:05:59.091Z,9.13
2022-11-14T16:08:18.507Z,9.65
2022-11-14T16:10:37.876Z,10.07
2022-11-14T16:12:57.591Z,10.45
2022-11-14T16:15:16.835Z,9.75
2022-11-14T16:17:42.069Z,10.75
2022-11-14T16:20:03.330Z,12.18
2022-11-14T16:22:22.815Z,12.20
2022-11-14T16:24:42.381Z,11.55
2022-11-14T16:27:02.048Z,11.40
2022-11-14T16:29:21.362Z,12.25
2022-11-14T16:31:41.449Z,12.05
2022-11-14T16:34:02.363Z,11.73
2022-11-14T16:36:25.762Z,11.32
2022-11-14T16:38:47.493Z,10.00
2022-11-14T16:41:11.408Z,10.63
2022-11-14T16:43:30.775Z,11.02
2022-11-14T16:45:50.966Z,9.45
2022-11-14T16:48:10.952Z,10.32
2022-11-14T16:50:32.052Z,9.90
2022-11-14T16:52:51.805Z,10.60
2022-11-14T16:55:12.373Z,11.25
2022-11-14T16:57:31.747Z,10.13
2022-11-14T16:59:52.424Z,9.70
2022-11-14T17:02:16.116Z,10.07
2022-11-14T17:04:35.885Z,10.00
2022-11-14T17:06:57.059Z,11.65
2022-11-14T17:09:17.469Z,11.02
2022-11-14T17:11:36.650Z,10.98
2022-11-14T17:13:57.438Z,10.07
2022-11-14T17:16:16.666Z,9.45
2022-11-14T17:18:38.828Z,9.20
2022-11-14T17:20:58.205Z,9.55
2022-11-14T17:23:19.562Z,9.77
2022-11-14T17:25:38.895Z,9.80
2022-11-14T17:27:58.263Z,9.15
2022-11-14T17:30:18.041Z,9.32
2022-11-14T17:32:37.508Z,9.20
2022-11-14T17:34:57.183Z,9.27
2022-11-14T17:37:16.501Z,8.65
2022-11-14T17:39:37.900Z,9.20
2022-11-14T17:41:57.181Z,7.82
2022-11-14T17:44:16.907Z,8.18
2022-11-14T17:46:36.633Z,8.30
2022-11-14T17:48:56.305Z,8.75
2022-11-14T17:51:16.902Z,7.97
2022-11-14T17:53:37.295Z,8.32
2022-11-14T17:56:01.422Z,8.60
2022-11-14T17:58:21.001Z,8.32
2022-11-14T18:00:40.465Z,7.80
2022-11-14T18:03:00.090Z,7.68
2022-11-14T18:05:19.711Z,8.32
2022-11-14T18:07:39.250Z,8.10
2022-11-14T18:09:58.701Z,8.07
2022-11-14T18:12:20.167Z,8.02
2022-11-14T18:14:39.688Z,8.35
2022-11-14T18:17:12.330Z,7.82
2022-11-14T18:19:32.964Z,7.93
2022-11-14T18:21:53.923Z,7.43
2022-11-14T18:24:16.665Z,7.28
2022-11-14T18:26:36.084Z,6.95
2022-11-14T18:29:02.430Z,7.20
2022-11-14T18:31:22.134Z,7.95
2022-11-14T18:33:42.782Z,7.03
2022-11-14T18:36:04.096Z,7.22
2022-11-14T18:38:23.821Z,6.95
2022-11-14T18:40:46.517Z,7.40
2022-11-14T18:43:06.495Z,7.28
2022-11-14T18:45:28.319Z,7.22
2022-11-14T18:47:48.307Z,7.57
2022-11-14T18:50:08.796Z,7.07
2022-11-14T18:52:28.326Z,7.55
2022-11-14T18:54:47.693Z,6.88
2022-11-14T18:57:07.418Z,7.35
2022-11-14T18:59:26.942Z,7.82
2022-11-14T19:01:48.419Z,6.72
2022-11-14T19:04:09.363Z,7.07
2022-11-14T19:06:29.596Z,7.10
2022-11-14T19:08:49.016Z,6.35
2022-11-14T19:11:10.462Z,7.22
2022-11-14T19:13:30.414Z,7.32
2022-11-14T19:15:49.882Z,7.00
2022-11-14T19:18:12.527Z,7.05
2022-11-14T19:20:31.841Z,7.60
2022-11-14T19:22:51.414Z,7.30
2022-11-14T19:25:11.961Z,7.70
2022-11-14T19:27:31.378Z,6.95
2022-11-14T19:29:51.418Z,6.60
2022-11-14T19:32:11.189Z,6.30
2022-11-14T19:34:32.091Z,6.47
2022-11-14T19:36:59.786Z,6.67
2022-11-14T19:39:19.487Z,6.75
2022-11-14T19:41:39.054Z,7.00
2022-11-14T19:43:59.340Z,8.00
2022-11-14T19:46:19.883Z,7.90
2022-11-14T19:48:39.763Z,7.68
2022-11-14T19:51:05.635Z,7.13
2022-11-14T19:53:24.948Z,8.02
2022-11-14T19:55:44.623Z,6.88
2022-11-14T19:58:03.888Z,7.47
2022-11-14T20:00:25.919Z,7.70
2022-11-14T20:02:45.287Z,7.25
2022-11-14T20:05:04.857Z,7.97
2022-11-14T20:07:26.223Z,7.80
2022-11-14T20:09:45.931Z,7.00
2022-11-14T20:12:05.881Z,7.47
2022-11-14T20:14:25.603Z,7.28
2022-11-14T20:16:44.919Z,7.43
2022-11-14T20:19:05.266Z,8.57
2022-11-14T20:21:26.012Z,9.18
2022-11-14T20:23:48.039Z,9.53
2022-11-14T20:26:11.224Z,7.40
2022-11-14T20:28:31.945Z,8.60
2022-11-14T20:30:51.107Z,7.70
2022-11-14T20:33:10.679Z,8.70
2022-11-14T20:35:29.739Z,8.48
2022-11-14T20:37:49.466Z,8.98
2022-11-14T20:40:11.343Z,9.10
2022-11-14T20:42:30.865Z,8.25
2022-11-14T20:44:50.127Z,7.90
2022-11-14T20:47:11.185Z,8.77
2022-11-14T20:49:30.859Z,9.20
2022-11-14T20:51:52.120Z,10.07
2022-11-14T20:54:12.820Z,9.93
2022-11-14T20:56:34.184Z,10.27
2022-11-14T20:58:54.781Z,10.43
2022-11-14T21:01:14.838Z,8.43
2022-11-14T21:03:34.722Z,7.63
2022-11-14T21:05:54.521Z,8.23
2022-11-14T21:08:13.990Z,8.77
2022-11-14T21:10:48.510Z,8.45
2022-11-14T21:13:29.961Z,8.15
2022-11-14T21:15:49.774Z,7.63
2022-11-14T21:18:09.402Z,7.43
2022-11-14T21:20:29.049Z,7.65
2022-11-14T21:22:48.235Z,6.80
2022-11-14T21:25:08.113Z,7.45
2022-11-14T21:27:27.587Z,7.40
2022-11-14T21:29:48.896Z,8.32
2022-11-14T21:32:08.571Z,8.98
2022-11-14T21:34:28.144Z,8.80
2022-11-14T21:36:47.923Z,7.93
2022-11-14T21:39:07.961Z,8.88
2022-11-14T21:41:28.907Z,8.38
2022-11-14T21:43:50.322Z,7.85
2022-11-14T21:46:12.506Z,7.68
2022-11-14T21:48:40.257Z,8.48
2022-11-14T21:51:07.524Z,7.65
2022-11-14T21:53:26.737Z,8.15
2022-11-14T21:55:46.257Z,7.47
2022-11-14T21:58:05.474Z,7.97
2022-11-14T22:00:25.351Z,7.68
2022-11-14T22:03:08.219Z,7.70
2022-11-14T22:05:28.098Z,7.60
2022-11-14T22:07:47.414Z,7.53
2022-11-14T22:10:07.141Z,7.30
2022-11-14T22:12:26.661Z,7.30
2022-11-14T22:14:45.771Z,7.38
2022-11-14T22:17:05.600Z,6.90
2022-11-14T22:19:27.219Z,7.03
2022-11-14T22:21:46.945Z,7.45
2022-11-14T22:24:06.314Z,6.97
2022-11-14T22:26:26.243Z,7.22
2022-11-14T22:28:45.815Z,7.05
2022-11-14T22:31:08.116Z,7.57
2022-11-14T22:33:27.283Z,7.07
2022-11-14T22:35:48.375Z,7.53
2022-11-14T22:38:07.689Z,7.32
2022-11-14T22:40:27.320Z,6.68
2022-11-14T22:42:46.524Z,7.32
2022-11-14T22:45:06.150Z,7.05
2022-11-14T22:47:25.366Z,7.63
2022-11-14T22:49:44.684Z,7.63
2022-11-14T22:52:05.530Z,8.73
2022-11-14T22:54:24.745Z,9.32
2022-11-14T22:56:44.314Z,9.10
2022-11-14T22:59:03.786Z,9.13
2022-11-14T23:01:26.077Z,8.93
2022-11-14T23:06:09.006Z,8.57
2022-11-14T23:08:29.841Z,9.63
2022-11-14T23:10:50.865Z,9.40
2022-11-14T23:13:10.336Z,9.10
2022-11-14T23:15:30.367Z,8.57
2022-11-14T23:17:49.630Z,9.07
2022-11-14T23:20:15.030Z,8.50
2022-11-14T23:22:35.586Z,10.15
2022-11-14T23:24:56.764Z,11.38
2022-11-14T23:27:16.148Z,9.82
2022-11-14T23:29:35.788Z,9.25
2022-11-14T23:31:55.357Z,9.18
2022-11-14T23:34:14.983Z,9.18
2022-11-14T23:36:34.296Z,9.02
2022-11-14T23:38:55.969Z,9.23
2022-11-14T23:41:23.425Z,10.75
2022-11-14T23:43:43.100Z,10.70
2022-11-14T23:46:03.083Z,10.70
2022-11-14T23:48:23.425Z,10.40
2022-11-14T23:50:42.637Z,10.15
2022-11-14T23:53:02.006Z,11.98
2022-11-14T23:55:21.524Z,11.73
2022-11-14T23:57:42.682Z,11.93
